Time;durP1;ratioP1;P1;durP2;ratioP2;P2;SDS_P1;SDS_P2;PMS_P1;PMS_P2;Temp;Humidity;BMP_temperature;BMP_pressure;BME280_temperature;BME280_humidity;BME280_pressure;Samples;Min_cycle;Max_cycle;Signal;HPM_P1;HPM_P2
2022/01/14 00:01:48;;;;;;;46.17;26.07;;;;;;;1.14;71.21;97473.16;5036868;28;20728;-83
2022/01/14 00:04:15;;;;;;;43.90;25.20;;;;;;;1.10;71.41;97471.66;5036038;28;20202;-85
2022/01/14 00:06:43;;;;;;;39.17;23.63;;;;;;;1.03;71.29;97476.19;5036682;28;20228;-84
2022/01/14 00:09:11;;;;;;;40.50;23.93;;;;;;;1.09;71.45;97482.69;5036216;28;20198;-83
2022/01/14 00:11:41;;;;;;;37.87;23.27;;;;;;;1.07;71.29;97483.66;5036258;28;20264;-85
2022/01/14 00:14:20;;;;;;;36.83;23.13;;;;;;;0.77;72.20;97478.28;5036478;28;20781;-84
2022/01/14 00:16:47;;;;;;;37.73;22.93;;;;;;;0.82;71.94;97478.88;5036276;28;20226;-84
2022/01/14 00:19:13;;;;;;;37.33;22.10;;;;;;;0.89;71.41;97473.47;5035992;28;20234;-85
2022/01/14 00:21:42;;;;;;;38.87;23.23;;;;;;;0.74;71.67;97476.72;5035957;28;20297;-86
2022/01/14 00:24:13;;;;;;;33.90;21.53;;;;;;;0.81;71.32;97474.69;5035310;28;20264;-85
2022/01/14 00:32:12;;;;;;;32.03;20.17;;;;;;;0.85;71.13;97459.28;5035737;28;20209;-85
2022/01/14 00:34:39;;;;;;;27.87;19.77;;;;;;;0.88;70.91;97449.00;5037012;28;20812;-84
2022/01/14 00:37:05;;;;;;;31.83;20.47;;;;;;;0.82;71.35;97456.88;5036581;28;20248;-85
2022/01/14 00:39:33;;;;;;;32.10;20.27;;;;;;;0.86;71.02;97452.50;5035625;28;20376;-85
2022/01/14 00:42:00;;;;;;;81.83;23.03;;;;;;;0.57;71.90;97452.13;5035787;28;20202;-85
2022/01/14 00:44:27;;;;;;;31.13;20.07;;;;;;;0.45;72.58;97451.84;5036078;28;20728;-86
2022/01/14 00:46:53;;;;;;;34.30;20.93;;;;;;;0.50;72.76;97450.75;5035402;28;20276;-85
2022/01/14 00:49:21;;;;;;;33.23;20.97;;;;;;;0.56;72.97;97450.50;5035490;28;20270;-84
2022/01/14 00:51:48;;;;;;;31.93;20.70;;;;;;;0.64;72.05;97443.34;5035886;28;20221;-86
2022/01/14 00:54:17;;;;;;;31.47;20.37;;;;;;;0.68;72.10;97438.97;5035742;28;20198;-84
2022/01/14 00:56:49;;;;;;;32.47;21.10;;;;;;;0.73;72.11;97441.28;5035770;28;20233;-86
2022/01/14 00:59:16;;;;;;;35.97;22.07;;;;;;;0.72;72.10;97434.56;5035039;28;20359;-85
2022/01/14 01:01:44;;;;;;;32.87;20.87;;;;;;;0.67;71.60;97438.13;5036011;28;20289;-85
2022/01/14 01:04:12;;;;;;;33.57;21.77;;;;;;;0.69;71.74;97436.34;5036274;28;20564;-85
2022/01/14 01:06:39;;;;;;;33.23;21.10;;;;;;;0.67;71.86;97430.53;5036155;28;20236;-86
2022/01/14 01:09:10;;;;;;;31.70;20.00;;;;;;;0.66;71.47;97418.75;5035790;28;20203;-85
2022/01/14 01:11:39;;;;;;;35.10;21.67;;;;;;;0.56;72.07;97415.00;5033662;28;20751;-84
2022/01/14 01:14:11;;;;;;;45.93;21.43;;;;;;;0.49;72.99;97413.63;5035815;28;20202;-85
2022/01/14 01:16:38;;;;;;;35.70;21.50;;;;;;;0.49;73.03;97416.16;5036003;28;20709;-85
2022/01/14 01:19:05;;;;;;;34.87;21.17;;;;;;;0.51;72.74;97408.50;5035600;28;20689;-84
2022/01/14 01:21:32;;;;;;;32.93;20.73;;;;;;;0.58;73.07;97422.50;5035113;28;20229;-85
2022/01/14 01:23:58;;;;;;;35.87;21.33;;;;;;;0.61;73.15;97425.72;5035254;28;20712;-85
2022/01/14 01:26:29;;;;;;;33.13;21.47;;;;;;;0.67;72.66;97419.56;5035044;28;20620;-85
2022/01/14 01:29:08;;;;;;;40.07;23.17;;;;;;;0.58;73.40;97419.97;5034879;28;20198;-85
2022/01/14 01:31:37;;;;;;;35.93;22.13;;;;;;;0.60;73.26;97424.09;5033759;28;20236;-85
2022/01/14 01:34:04;;;;;;;36.83;23.13;;;;;;;0.63;73.10;97420.59;5035522;28;20202;-85
2022/01/14 01:36:30;;;;;;;49.20;24.60;;;;;;;0.44;73.67;97418.06;5035138;28;20272;-85
2022/01/14 01:38:57;;;;;;;40.97;23.80;;;;;;;0.40;74.04;97434.31;5035159;28;20253;-86
2022/01/14 01:41:24;;;;;;;37.93;23.57;;;;;;;0.42;74.11;97427.47;5033987;28;20226;-85
2022/01/14 01:43:53;;;;;;;40.07;24.30;;;;;;;0.50;73.80;97425.41;5034472;28;20256;-86
2022/01/14 01:46:23;;;;;;;38.10;22.90;;;;;;;0.36;74.06;97432.00;5034313;28;20240;-85
2022/01/14 01:48:51;;;;;;;38.70;24.00;;;;;;;0.43;73.78;97425.75;5034988;28;20194;-86
2022/01/14 01:51:18;;;;;;;36.33;22.17;;;;;;;0.42;74.11;97426.63;5033886;28;20248;-84
2022/01/14 01:53:45;;;;;;;37.70;22.70;;;;;;;0.42;74.16;97424.94;5034887;28;20202;-85
2022/01/14 01:56:11;;;;;;;35.83;22.30;;;;;;;0.43;73.78;97431.63;5034374;28;20218;-86
2022/01/14 01:58:38;;;;;;;38.67;23.43;;;;;;;0.40;73.83;97429.22;5034579;28;20228;-85
2022/01/14 02:01:05;;;;;;;36.00;21.20;;;;;;;0.37;73.59;97420.97;5034060;28;20276;-85
2022/01/14 02:03:33;;;;;;;35.77;21.67;;;;;;;0.35;73.54;97421.03;5034344;28;20206;-86
2022/01/14 02:06:01;;;;;;;34.97;21.80;;;;;;;0.37;73.34;97415.91;5016279;28;20231;-85
2022/01/14 02:08:27;;;;;;;31.23;20.97;;;;;;;0.35;73.52;97421.03;5033956;28;20195;-86
2022/01/14 02:10:54;;;;;;;33.80;20.47;;;;;;;0.28;73.59;97425.56;5033281;28;20450;-86
2022/01/14 02:13:20;;;;;;;33.53;21.57;;;;;;;0.40;73.17;97413.22;5033863;28;20206;-85
2022/01/14 02:15:50;;;;;;;31.80;20.63;;;;;;;0.48;72.79;97411.16;5034109;28;20226;-85
2022/01/14 02:18:36;;;;;;;31.40;20.53;;;;;;;0.54;72.41;97410.91;5034480;28;20224;-85
2022/01/14 02:23:54;;;;;;;32.33;20.77;;;;;;;0.55;71.67;97410.84;5026216;28;20205;-85
2022/01/14 02:26:23;;;;;;;34.03;22.07;;;;;;;0.46;71.70;97411.22;5033134;28;20225;-81
2022/01/14 02:28:50;;;;;;;33.97;22.00;;;;;;;0.44;71.58;97407.94;5032110;28;20240;-84
2022/01/14 02:31:18;;;;;;;35.50;22.07;;;;;;;0.43;72.14;97408.00;5033382;28;20253;-85
2022/01/14 02:33:45;;;;;;;38.27;22.60;;;;;;;0.19;72.51;97405.69;5034154;28;20194;-83
2022/01/14 02:36:12;;;;;;;36.20;21.93;;;;;;;0.25;72.78;97400.34;5034122;28;20724;-84
2022/01/14 02:38:39;;;;;;;38.17;23.67;;;;;;;0.30;72.08;97398.44;5014689;28;20226;-85
2022/01/14 02:41:06;;;;;;;38.80;23.53;;;;;;;0.00;73.21;97382.88;5033855;28;20225;-85
2022/01/14 02:43:34;;;;;;;36.53;22.73;;;;;;;0.11;73.24;97389.19;5034379;28;20242;-85
2022/01/14 02:46:00;;;;;;;37.77;23.03;;;;;;;0.16;72.95;97389.81;5033337;28;20258;-86
2022/01/14 02:48:29;;;;;;;36.40;22.47;;;;;;;0.18;73.12;97382.97;5034098;28;20700;-84
2022/01/14 02:51:00;;;;;;;35.10;21.83;;;;;;;0.31;73.05;97379.00;5033423;28;20701;-84
2022/01/14 02:53:41;;;;;;;35.23;21.67;;;;;;;0.39;72.62;97386.22;5034086;28;20194;-85
2022/01/14 02:56:09;;;;;;;38.30;21.97;;;;;;;0.41;72.12;97379.38;5033309;28;20289;-85
2022/01/14 02:58:39;;;;;;;35.87;21.93;;;;;;;0.28;72.62;97379.13;5033878;28;20198;-81
2022/01/14 03:01:07;;;;;;;35.10;21.43;;;;;;;0.32;73.00;97376.41;5032084;28;20252;-83
2022/01/14 03:03:34;;;;;;;36.17;22.70;;;;;;;0.30;72.80;97378.19;5030214;28;20689;-86
2022/01/14 03:06:02;;;;;;;35.23;21.93;;;;;;;0.37;72.34;97375.38;5033685;28;20222;-85
2022/01/14 03:08:30;;;;;;;36.43;22.87;;;;;;;0.42;72.25;97370.91;5033176;28;20256;-85
2022/01/14 03:11:00;;;;;;;34.50;21.40;;;;;;;0.41;72.06;97364.19;5032845;28;20226;-82
2022/01/14 03:13:26;;;;;;;34.60;21.87;;;;;;;0.41;72.27;97359.13;5032344;28;20191;-83
2022/01/14 03:15:53;;;;;;;34.63;22.03;;;;;;;0.40;72.08;97348.16;5032944;28;20225;-84
2022/01/14 03:18:29;;;;;;;34.87;22.70;;;;;;;0.41;71.62;97346.44;5033707;28;20206;-82
2022/01/14 03:21:08;;;;;;;36.10;21.57;;;;;;;0.43;71.42;97348.03;5032475;28;20577;-85
2022/01/14 03:23:43;;;;;;;34.53;21.50;;;;;;;0.43;71.57;97347.19;5032769;28;20228;-84
2022/01/14 03:26:10;;;;;;;33.57;20.30;;;;;;;0.45;71.39;97340.34;5033310;28;20347;-84
2022/01/14 03:28:36;;;;;;;33.53;21.17;;;;;;;0.48;71.25;97337.69;5032379;28;20198;-85
2022/01/14 03:31:02;;;;;;;34.13;21.20;;;;;;;0.41;71.50;97339.66;5032484;28;20700;-85
2022/01/14 03:33:29;;;;;;;32.90;20.93;;;;;;;0.39;71.63;97336.38;5032291;28;20206;-85
2022/01/14 03:35:55;;;;;;;34.40;21.90;;;;;;;0.44;71.57;97334.47;5036672;28;20218;-84
2022/01/14 03:38:22;;;;;;;32.67;21.00;;;;;;;0.49;71.18;97339.31;5036348;28;20251;-84
2022/01/14 03:40:49;;;;;;;33.13;21.30;;;;;;;0.55;70.95;97342.41;5035861;28;20651;-85
2022/01/14 03:43:16;;;;;;;32.27;19.87;;;;;;;0.56;70.70;97341.50;5036684;28;20289;-85
2022/01/14 03:45:42;;;;;;;31.80;20.90;;;;;;;0.56;70.56;97336.44;5035999;28;20256;-85
2022/01/14 03:48:09;;;;;;;31.87;21.30;;;;;;;0.55;70.55;97326.38;5036850;28;20213;-84
2022/01/14 03:50:36;;;;;;;31.40;20.60;;;;;;;0.53;70.58;97325.63;5035664;28;20229;-85
2022/01/14 03:53:03;;;;;;;33.40;21.70;;;;;;;0.54;70.64;97322.19;5036799;28;20213;-86
2022/01/14 03:55:29;;;;;;;33.83;20.80;;;;;;;0.46;70.44;97322.53;5036531;28;20209;-85
2022/01/14 03:57:57;;;;;;;33.97;21.77;;;;;;;0.47;70.63;97315.75;5021878;28;20202;-85
2022/01/14 04:00:24;;;;;;;32.77;21.40;;;;;;;0.49;70.49;97321.59;5035785;28;20230;-85
2022/01/14 04:02:51;;;;;;;30.90;21.10;;;;;;;0.54;70.55;97320.50;5035917;28;20260;-84
2022/01/14 04:05:17;;;;;;;32.50;20.83;;;;;;;0.59;70.02;97323.59;5036328;28;20673;-84
2022/01/14 04:07:44;;;;;;;30.17;19.67;;;;;;;0.63;70.23;97317.50;5037795;28;20198;-84
2022/01/14 04:10:12;;;;;;;32.63;20.23;;;;;;;0.59;69.80;97317.72;5035789;28;20222;-84
2022/01/14 04:12:51;;;;;;;29.00;20.30;;;;;;;0.53;69.80;97305.34;5037126;28;20194;-84
2022/01/14 04:15:38;;;;;;;30.87;20.50;;;;;;;0.50;69.87;97313.09;5036107;28;20213;-85
2022/01/14 04:18:06;;;;;;;33.53;20.43;;;;;;;0.52;69.77;97317.19;5036585;28;20673;-85
2022/01/14 04:20:34;;;;;;;29.73;20.00;;;;;;;0.48;69.90;97308.09;5035615;28;20226;-84
2022/01/14 04:23:01;;;;;;;31.43;19.97;;;;;;;0.52;70.13;97311.31;5035644;28;20684;-85
2022/01/14 04:25:27;;;;;;;33.07;20.73;;;;;;;0.57;69.61;97312.75;5035730;28;20263;-85
2022/01/14 04:27:54;;;;;;;30.00;20.33;;;;;;;0.59;69.44;97310.09;5035912;28;20689;-86
2022/01/14 04:30:22;;;;;;;29.83;20.30;;;;;;;0.58;69.50;97306.75;5035434;28;20257;-84
2022/01/14 04:32:49;;;;;;;30.43;20.83;;;;;;;0.61;69.74;97310.84;5035605;28;20198;-85
2022/01/14 04:35:15;;;;;;;31.33;20.20;;;;;;;0.66;69.76;97311.47;5035772;28;20224;-85
2022/01/14 04:37:42;;;;;;;32.53;20.70;;;;;;;0.63;69.23;97299.75;5035711;28;20198;-85
2022/01/14 04:40:10;;;;;;;30.10;20.60;;;;;;;0.63;69.47;97304.81;5034678;28;20237;-86
2022/01/14 04:42:37;;;;;;;33.10;21.40;;;;;;;0.61;69.20;97295.66;5035319;28;20229;-85
2022/01/14 04:45:04;;;;;;;30.63;21.07;;;;;;;0.61;69.09;97293.13;5035376;28;20202;-85
2022/01/14 04:47:44;;;;;;;33.60;21.30;;;;;;;0.52;69.52;97294.41;5035099;28;20226;-85
2022/01/14 04:50:11;;;;;;;32.60;20.70;;;;;;;0.51;69.41;97291.94;5034180;28;20654;-85
2022/01/14 04:52:38;;;;;;;31.70;20.60;;;;;;;0.53;69.84;97292.69;5034499;28;20273;-85
2022/01/14 04:55:06;;;;;;;33.37;21.40;;;;;;;0.58;69.70;97294.09;5035321;28;20202;-84
2022/01/14 04:57:32;;;;;;;35.40;21.60;;;;;;;0.60;69.45;97288.94;5035564;28;20218;-84
2022/01/14 04:59:59;;;;;;;32.67;21.60;;;;;;;0.60;69.08;97294.84;5034449;28;20448;-83
2022/01/14 05:02:26;;;;;;;32.87;20.67;;;;;;;0.61;69.38;97296.47;5034779;28;20193;-84
2022/01/14 05:04:57;;;;;;;31.30;20.13;;;;;;;0.64;68.96;97292.97;5034721;28;20201;-85
2022/01/14 05:07:25;;;;;;;32.40;20.70;;;;;;;0.64;68.66;97295.50;5034679;28;20614;-84
2022/01/14 05:10:06;;;;;;;32.50;21.30;;;;;;;0.61;68.99;97296.47;5034283;28;20309;-84
2022/01/14 05:12:35;;;;;;;32.60;21.57;;;;;;;0.64;68.90;97300.59;5034684;28;20201;-85
2022/01/14 05:15:02;;;;;;;33.20;21.80;;;;;;;0.60;68.73;97289.75;5034921;28;20198;-85
2022/01/14 05:17:28;;;;;;;33.60;21.33;;;;;;;0.61;69.04;97288.06;5034894;28;20246;-84
2022/01/14 05:19:58;;;;;;;30.77;19.90;;;;;;;0.60;68.84;97287.22;5031737;28;20969;-84
2022/01/14 05:22:24;;;;;;;30.80;20.57;;;;;;;0.62;68.68;97289.69;5032833;28;20277;-84
2022/01/14 05:24:51;;;;;;;30.20;20.33;;;;;;;0.61;68.33;97296.47;5033549;28;20202;-84
2022/01/14 05:27:18;;;;;;;29.93;18.67;;;;;;;0.58;68.42;97294.09;5033613;28;20455;-84
2022/01/14 05:29:44;;;;;;;30.37;20.37;;;;;;;0.57;68.50;97287.41;5038719;28;20225;-84
2022/01/14 05:32:13;;;;;;;30.83;19.43;;;;;;;0.56;68.79;97290.81;5039927;28;20202;-85
2022/01/14 05:34:41;;;;;;;29.33;20.00;;;;;;;0.54;69.14;97287.53;5046284;28;20197;-84
2022/01/14 05:37:09;;;;;;;31.00;20.20;;;;;;;0.53;69.10;97285.06;5056057;28;20596;-84
2022/01/14 05:39:36;;;;;;;33.03;20.17;;;;;;;0.42;69.15;97290.63;5050179;28;20233;-84
2022/01/14 05:42:03;;;;;;;30.30;19.53;;;;;;;0.46;69.38;97286.25;5026958;28;20213;-83
2022/01/14 05:44:30;;;;;;;28.90;18.60;;;;;;;0.50;69.79;97290.28;5032493;28;20225;-85
2022/01/14 05:46:59;;;;;;;30.93;19.57;;;;;;;0.48;69.71;97280.22;5032577;28;20233;-83
2022/01/14 05:49:25;;;;;;;28.93;18.57;;;;;;;0.57;69.42;97289.13;5032991;28;20206;-84
2022/01/14 05:51:52;;;;;;;27.70;18.43;;;;;;;0.60;69.29;97294.00;5028932;28;20201;-83
2022/01/14 05:54:21;;;;;;;29.73;18.17;;;;;;;0.60;69.18;97294.84;5030111;28;20205;-84
2022/01/14 05:56:48;;;;;;;28.40;18.13;;;;;;;0.55;68.86;97299.31;5022340;28;20218;-80
2022/01/14 05:59:16;;;;;;;29.00;18.43;;;;;;;0.49;69.15;97289.47;5029352;28;20801;-81
2022/01/14 06:01:43;;;;;;;27.83;18.30;;;;;;;0.52;69.06;97313.84;5031097;28;20673;-84
2022/01/14 06:04:10;;;;;;;30.87;19.33;;;;;;;0.53;69.13;97305.34;5032076;28;20201;-83
2022/01/14 06:06:36;;;;;;;29.07;19.00;;;;;;;0.50;69.06;97310.56;5032240;28;20741;-84
2022/01/14 06:09:04;;;;;;;28.70;18.67;;;;;;;0.53;69.21;97306.19;5035325;28;20252;-83
2022/01/14 06:11:32;;;;;;;28.53;19.17;;;;;;;0.54;69.51;97307.81;5030838;28;20739;-84
2022/01/14 06:13:58;;;;;;;31.90;19.40;;;;;;;0.44;69.22;97311.66;5033249;28;20610;-84
2022/01/14 06:16:25;;;;;;;30.07;19.97;;;;;;;0.42;69.44;97315.16;5032023;28;20257;-84
2022/01/14 06:18:51;;;;;;;28.33;19.87;;;;;;;0.44;69.59;97305.78;5032875;28;20209;-83
2022/01/14 06:21:18;;;;;;;30.47;19.57;;;;;;;0.42;70.05;97308.38;5031922;28;20237;-84
2022/01/14 06:23:44;;;;;;;31.07;19.20;;;;;;;0.45;70.67;97304.88;5031998;28;20217;-84
2022/01/14 06:26:11;;;;;;;31.00;19.90;;;;;;;0.38;71.31;97295.94;5031641;28;20245;-84
2022/01/14 06:28:38;;;;;;;29.43;18.00;;;;;;;0.34;71.20;97298.63;5031589;28;20224;-84
2022/01/14 06:31:05;;;;;;;29.57;19.60;;;;;;;0.32;71.38;97295.34;5030788;28;20226;-86
2022/01/14 06:33:31;;;;;;;31.80;19.50;;;;;;;0.29;70.96;97299.72;5031558;28;20700;-85
2022/01/14 06:35:58;;;;;;;31.43;19.00;;;;;;;0.30;71.57;97301.34;5030968;28;20224;-85
2022/01/14 06:38:25;;;;;;;29.50;19.93;;;;;;;0.35;71.30;97301.97;5031823;28;20198;-85
2022/01/14 06:40:52;;;;;;;34.97;23.23;;;;;;;0.39;71.22;97300.09;5030961;28;20230;-84
2022/01/14 06:43:18;;;;;;;33.23;21.37;;;;;;;0.38;75.24;97288.34;5031854;28;20232;-84
2022/01/14 06:45:46;;;;;;;30.97;18.90;;;;;;;0.46;71.37;97283.72;5032310;28;20230;-85
2022/01/14 06:48:13;;;;;;;32.73;20.47;;;;;;;0.44;72.16;97278.72;5031368;28;20358;-84
2022/01/14 06:50:39;;;;;;;32.60;19.30;;;;;;;0.42;71.52;97288.09;5030531;28;20222;-84
2022/01/14 06:53:06;;;;;;;29.70;19.97;;;;;;;0.49;71.00;97281.88;5030816;28;20208;-85
2022/01/14 06:55:32;;;;;;;30.27;19.17;;;;;;;0.58;71.09;97276.34;5030551;28;20206;-85
2022/01/14 06:57:59;;;;;;;28.07;18.87;;;;;;;0.66;70.30;97270.91;5032392;28;20202;-84
2022/01/14 07:00:25;;;;;;;31.63;18.67;;;;;;;0.68;70.24;97275.03;5033093;28;20241;-84
2022/01/14 07:02:56;;;;;;;30.30;18.60;;;;;;;0.69;70.07;97275.84;5032460;28;20206;-83
2022/01/14 07:05:22;;;;;;;29.03;17.70;;;;;;;0.67;69.45;97282.69;5032330;28;20198;-86
2022/01/14 07:07:49;;;;;;;29.57;18.87;;;;;;;0.61;70.32;97283.81;5028010;28;20658;-85
2022/01/14 07:10:15;;;;;;;28.20;18.57;;;;;;;0.61;69.92;97288.88;5030945;28;20229;-84
2022/01/14 07:12:44;;;;;;;27.77;18.30;;;;;;;0.61;70.11;97293.13;5033502;28;20206;-84
2022/01/14 07:15:13;;;;;;;25.00;16.50;;;;;;;0.59;70.17;97292.38;5032462;28;20217;-85
2022/01/14 07:17:41;;;;;;;27.77;17.50;;;;;;;0.62;70.48;97297.28;5033139;28;20229;-85
2022/01/14 07:20:12;;;;;;;28.80;18.37;;;;;;;0.63;70.27;97304.81;5031975;28;20237;-85
2022/01/14 07:22:40;;;;;;;27.57;18.00;;;;;;;0.65;70.37;97297.16;5033106;28;20688;-84
2022/01/14 07:25:07;;;;;;;24.47;16.87;;;;;;;0.67;70.26;97303.78;5032719;28;20563;-84
2022/01/14 07:27:33;;;;;;;27.20;16.40;;;;;;;0.66;70.11;97306.41;5031082;28;20232;-82
2022/01/14 07:30:00;;;;;;;21.43;15.83;;;;;;;0.62;70.19;97303.19;5032035;28;20234;-85
2022/01/14 07:32:26;;;;;;;20.70;14.43;;;;;;;0.53;70.55;97307.88;5031235;28;20206;-86
2022/01/14 07:34:53;;;;;;;25.37;14.90;;;;;;;0.60;70.31;97302.44;5031572;28;20701;-85
2022/01/14 07:37:21;;;;;;;22.57;15.63;;;;;;;0.64;70.27;97306.47;5030529;28;20221;-85
2022/01/14 07:39:48;;;;;;;21.13;15.00;;;;;;;0.71;70.46;97307.00;5032513;28;20230;-85
2022/01/14 07:42:15;;;;;;;24.03;14.30;;;;;;;0.84;70.54;97307.22;5031727;28;20212;-85
2022/01/14 07:44:41;;;;;;;19.53;13.57;;;;;;;0.95;70.19;97303.28;5032351;28;20198;-85
2022/01/14 07:47:08;;;;;;;21.87;14.60;;;;;;;1.01;70.08;97312.28;5030979;28;20716;-85
2022/01/14 07:49:34;;;;;;;21.17;15.10;;;;;;;1.14;70.05;97302.38;5030492;28;20699;-85
2022/01/14 07:52:01;;;;;;;22.67;15.33;;;;;;;1.26;69.64;97309.38;5031328;28;20209;-86
2022/01/14 07:54:30;;;;;;;23.40;13.77;;;;;;;1.35;69.30;97309.72;5031542;28;20202;-85
2022/01/14 07:56:59;;;;;;;20.70;14.10;;;;;;;1.47;69.05;97302.41;5031686;28;20284;-84
2022/01/14 07:59:29;;;;;;;20.87;14.33;;;;;;;1.57;68.90;97313.69;5031232;28;20202;-83
2022/01/14 08:01:58;;;;;;;21.50;13.73;;;;;;;1.70;68.11;97307.13;5030748;28;20233;-85
2022/01/14 08:04:25;;;;;;;17.87;12.63;;;;;;;1.84;67.60;97304.66;5031442;28;20678;-83
2022/01/14 08:06:54;;;;;;;18.70;12.97;;;;;;;2.00;67.43;97305.50;5031918;28;20305;-85
2022/01/14 08:09:22;;;;;;;18.63;12.20;;;;;;;2.15;67.28;97303.84;5030980;28;20670;-85
2022/01/14 08:11:51;;;;;;;19.27;12.27;;;;;;;2.32;66.64;97308.00;5031638;28;20202;-85
2022/01/14 08:14:17;;;;;;;16.07;11.57;;;;;;;2.54;66.43;97308.47;5030960;28;20198;-85
2022/01/14 08:16:44;;;;;;;20.53;11.43;;;;;;;2.62;66.01;97315.69;5028430;28;20226;-86
2022/01/14 08:19:10;;;;;;;17.07;12.17;;;;;;;2.66;65.57;97312.91;5030622;28;20205;-85
2022/01/14 08:21:37;;;;;;;16.00;11.67;;;;;;;2.85;65.94;97314.41;5031307;28;20229;-86
2022/01/14 08:24:03;;;;;;;19.63;11.20;;;;;;;2.98;65.87;97318.72;5032153;28;20209;-85
2022/01/14 08:26:30;;;;;;;15.57;11.13;;;;;;;3.14;64.96;97311.03;5031592;28;20229;-85
2022/01/14 08:28:58;;;;;;;13.20;10.97;;;;;;;3.28;64.82;97310.22;5033999;28;20617;-84
2022/01/14 08:31:24;;;;;;;18.13;11.80;;;;;;;3.42;64.76;97311.06;5033362;28;20230;-84
2022/01/14 08:33:51;;;;;;;44.73;29.37;;;;;;;3.60;63.95;97304.06;5033570;28;20194;-85
2022/01/14 08:36:18;;;;;;;29.27;20.30;;;;;;;3.80;63.44;97301.16;5033348;28;20801;-85
2022/01/14 08:38:44;;;;;;;22.47;14.63;;;;;;;4.01;63.53;97293.13;5033582;28;20256;-85
2022/01/14 08:41:11;;;;;;;17.77;10.63;;;;;;;4.24;62.71;97302.69;5032746;28;20225;-86
2022/01/14 08:43:37;;;;;;;13.17;10.03;;;;;;;4.40;62.37;97305.94;5033541;28;21507;-84
2022/01/14 08:46:05;;;;;;;15.90;10.87;;;;;;;4.51;61.56;97308.63;5030410;28;20288;-82
2022/01/14 08:48:31;;;;;;;14.30;10.57;;;;;;;4.70;61.11;97308.28;5031769;28;20202;-85
2022/01/14 08:50:58;;;;;;;14.37;10.53;;;;;;;4.85;60.77;97307.28;5031548;28;20881;-82
2022/01/14 08:53:24;;;;;;;14.73;10.67;;;;;;;5.01;60.89;97303.75;5031941;28;20209;-84
2022/01/14 08:55:51;;;;;;;13.27;9.80;;;;;;;5.07;60.05;97300.81;5031581;28;20234;-83
2022/01/14 08:58:17;;;;;;;12.70;10.30;;;;;;;5.12;59.91;97296.22;5031468;28;20255;-81
2022/01/14 09:00:44;;;;;;;14.33;10.53;;;;;;;5.12;59.53;97296.22;5030588;28;20229;-82
2022/01/14 09:03:13;;;;;;;12.50;10.03;;;;;;;5.13;59.97;97287.66;5032212;28;20648;-83
2022/01/14 09:05:39;;;;;;;11.40;9.27;;;;;;;5.12;59.45;97284.28;5031500;28;20551;-85
2022/01/14 09:08:06;;;;;;;11.40;9.40;;;;;;;5.22;59.88;97285.28;5029705;28;20198;-83
2022/01/14 09:10:32;;;;;;;12.70;9.53;;;;;;;5.39;59.42;97281.63;5030975;28;20288;-82
2022/01/14 09:12:59;;;;;;;11.63;9.57;;;;;;;5.37;59.42;97285.22;5032319;28;20209;-83
2022/01/14 09:15:25;;;;;;;10.53;8.97;;;;;;;5.56;59.28;97290.72;5031295;28;20206;-83
2022/01/14 09:17:52;;;;;;;13.70;11.07;;;;;;;5.55;58.74;97281.41;5033050;28;20597;-83
2022/01/14 09:20:19;;;;;;;11.23;9.53;;;;;;;5.63;58.45;97286.00;5031417;28;20234;-83
2022/01/14 09:22:49;;;;;;;10.03;8.27;;;;;;;5.68;58.01;97277.09;5028959;28;20870;-85
2022/01/14 09:25:17;;;;;;;9.37;8.37;;;;;;;5.82;58.19;97282.09;5032613;28;20210;-85
2022/01/14 09:27:44;;;;;;;9.57;8.00;;;;;;;5.91;57.83;97288.34;5033642;28;20721;-85
2022/01/14 09:30:12;;;;;;;8.73;7.83;;;;;;;6.09;57.82;97287.06;5032695;28;20237;-84
2022/01/14 09:32:38;;;;;;;11.17;8.13;;;;;;;6.27;56.81;97282.41;5033390;28;20641;-86
2022/01/14 09:35:07;;;;;;;10.43;8.43;;;;;;;6.45;56.33;97281.09;5040407;28;20198;-85
2022/01/14 09:37:36;;;;;;;9.83;8.37;;;;;;;6.59;56.70;97285.22;5033548;28;20224;-85
2022/01/14 09:40:03;;;;;;;10.33;8.17;;;;;;;6.82;56.15;97288.69;5033000;28;20237;-86
2022/01/14 09:42:30;;;;;;;8.43;7.40;;;;;;;6.97;55.68;97279.91;5032867;28;20225;-85
2022/01/14 09:44:57;;;;;;;8.33;7.40;;;;;;;7.25;55.25;97283.81;5033779;28;20289;-85
2022/01/14 09:47:23;;;;;;;10.23;7.17;;;;;;;7.46;54.47;97292.47;5032775;28;20230;-86
2022/01/14 09:49:50;;;;;;;10.13;7.80;;;;;;;7.47;53.41;97283.84;5032718;28;20222;-85
2022/01/14 09:52:17;;;;;;;8.07;7.10;;;;;;;7.55;53.92;97285.81;5033455;28;20218;-85
2022/01/14 09:54:47;;;;;;;8.23;6.90;;;;;;;7.55;53.82;97283.25;5032927;28;20268;-86
2022/01/14 09:57:16;;;;;;;8.87;7.37;;;;;;;7.58;52.94;97293.28;5032861;28;20823;-86
2022/01/14 09:59:43;;;;;;;8.50;7.13;;;;;;;7.56;53.05;97285.69;5031292;28;20226;-86
2022/01/14 10:02:09;;;;;;;7.73;6.93;;;;;;;7.63;53.55;97286.88;5032956;28;20712;-85
2022/01/14 10:04:38;;;;;;;8.47;6.90;;;;;;;7.58;52.20;97283.84;5033432;28;20350;-85
2022/01/14 10:07:05;;;;;;;8.90;7.43;;;;;;;7.68;52.58;97283.16;5033338;28;20693;-85
2022/01/14 10:09:35;;;;;;;9.23;7.73;;;;;;;7.74;52.17;97280.91;5032598;28;20697;-85
2022/01/14 10:12:06;;;;;;;9.57;7.33;;;;;;;7.74;52.34;97274.97;5032654;28;20210;-85
2022/01/14 10:14:34;;;;;;;8.93;7.83;;;;;;;7.80;52.03;97282.22;5033268;28;20207;-86
2022/01/14 10:17:02;;;;;;;9.93;8.53;;;;;;;7.85;52.03;97270.69;5032972;28;20233;-85
2022/01/14 10:19:31;;;;;;;9.10;7.97;;;;;;;7.82;51.37;97278.59;5031742;28;20213;-85
2022/01/14 10:21:58;;;;;;;9.33;8.00;;;;;;;7.80;51.95;97265.06;5028912;28;20284;-85
2022/01/14 10:24:27;;;;;;;10.90;8.00;;;;;;;7.85;52.13;97262.97;5032021;28;20209;-86
2022/01/14 10:26:56;;;;;;;8.93;8.00;;;;;;;7.92;51.92;97261.56;5033083;28;20574;-85
2022/01/14 10:29:32;;;;;;;9.23;7.93;;;;;;;8.03;51.37;97262.50;5031125;28;20194;-82
2022/01/14 10:32:00;;;;;;;8.47;7.33;;;;;;;7.98;50.56;97255.16;5031965;28;20252;-82
2022/01/14 10:34:27;;;;;;;10.00;7.73;;;;;;;7.98;50.55;97252.56;5032136;28;20260;-83
2022/01/14 10:37:10;;;;;;;8.67;7.40;;;;;;;7.95;50.30;97257.94;5032290;28;20233;-81
2022/01/14 10:39:45;;;;;;;8.63;7.73;;;;;;;7.87;51.12;97260.31;5031030;28;20226;-82
2022/01/14 10:42:23;;;;;;;8.65;7.75;;;;;;;8.00;50.91;97262.72;5030660;28;20487;-83
2022/01/14 10:44:51;;;;;;;8.00;7.20;;;;;;;8.06;50.78;97268.19;5031912;28;20202;-82
2022/01/14 10:47:20;;;;;;;8.23;7.33;;;;;;;8.17;50.92;97264.78;5029651;28;20236;-82
2022/01/14 10:49:48;;;;;;;9.90;7.53;;;;;;;8.23;50.78;97267.69;5029966;28;20500;-84
2022/01/14 10:52:16;;;;;;;8.93;7.57;;;;;;;8.33;50.75;97257.53;5032343;28;20194;-84
2022/01/14 10:54:46;;;;;;;8.73;7.60;;;;;;;8.32;50.71;97256.72;5031586;28;20202;-82
2022/01/14 10:57:14;;;;;;;8.40;7.50;;;;;;;8.40;50.60;97258.69;5032269;28;20737;-81
2022/01/14 10:59:40;;;;;;;9.47;7.43;;;;;;;8.44;50.23;97259.28;5030514;28;20225;-82
2022/01/14 11:02:32;;;;;;;9.53;8.37;;;;;;;8.48;50.01;97251.19;5031394;28;20225;-83
2022/01/14 11:05:04;;;;;;;10.70;9.07;;;;;;;8.50;50.98;97249.31;5031575;28;20202;-83
2022/01/14 11:07:31;;;;;;;9.53;7.53;;;;;;;8.42;50.63;97243.19;5031996;28;20700;-82
2022/01/14 11:09:58;;;;;;;7.80;7.00;;;;;;;8.45;50.18;97242.94;5030662;28;20241;-83
2022/01/14 11:12:25;;;;;;;9.67;7.23;;;;;;;8.52;50.11;97242.31;5031123;28;20202;-82
2022/01/14 11:14:52;;;;;;;10.20;7.50;;;;;;;8.59;49.52;97235.75;5031681;28;20234;-82
2022/01/14 11:17:19;;;;;;;10.37;7.50;;;;;;;8.61;49.32;97236.44;5031539;28;20237;-81
2022/01/14 11:19:47;;;;;;;11.47;7.83;;;;;;;8.63;49.76;97233.75;5030167;28;20222;-83
2022/01/14 11:24:59;;;;;;;9.17;6.83;;;;;;;8.66;49.59;97224.03;5030980;28;20315;-83
2022/01/14 11:27:26;;;;;;;10.90;8.37;;;;;;;8.55;49.89;97220.72;5031461;28;20214;-83
2022/01/14 11:29:58;;;;;;;12.30;7.47;;;;;;;8.62;50.32;97214.97;5030121;28;20238;-83
2022/01/14 11:32:26;;;;;;;11.47;7.87;;;;;;;8.69;50.14;97209.31;5030717;28;20196;-83
2022/01/14 11:34:52;;;;;;;11.53;7.90;;;;;;;8.83;49.89;97206.47;5031540;28;20190;-84
2022/01/14 11:37:32;;;;;;;10.70;7.83;;;;;;;8.91;49.94;97198.91;5030700;28;20225;-83
2022/01/14 11:40:02;;;;;;;10.13;7.97;;;;;;;8.94;49.83;97198.66;5031285;28;20260;-82
2022/01/14 11:42:43;;;;;;;10.53;7.87;;;;;;;9.08;49.96;97189.81;5030901;28;20218;-83
2022/01/14 11:45:11;;;;;;;9.50;7.47;;;;;;;9.10;49.62;97193.06;5031036;28;20198;-82